Time;durP1;ratioP1;P1;durP2;ratioP2;P2;SDS_P1;SDS_P2;PMS_P1;PMS_P2;Temp;Humidity;BMP_temperature;BMP_pressure;BME280_temperature;BME280_humidity;BME280_pressure;Samples;Min_cycle;Max_cycle;Signal;HPM_P1;HPM_P2
2022/02/16 00:00:31;;;;;;;37.15;26.42;;;;;;;;;;5014535;28;20037;-74
2022/02/16 00:02:57;;;;;;;36.13;27.23;;;;;;;;;;5014870;28;20547;-74
2022/02/16 00:05:23;;;;;;;34.08;24.80;;;;;;;;;;5014673;28;20034;-73
2022/02/16 00:07:49;;;;;;;34.58;24.17;;;;;;;;;;5014751;28;20026;-75
2022/02/16 00:10:16;;;;;;;29.88;21.70;;;;;;;;;;5014793;28;20062;-74
2022/02/16 00:12:43;;;;;;;21.95;17.35;;;;;;;;;;5014462;28;20029;-75
2022/02/16 00:15:10;;;;;;;22.65;16.75;;;;;;;;;;5014783;28;20037;-74
2022/02/16 00:17:37;;;;;;;20.95;15.93;;;;;;;;;;5014538;28;20045;-74
2022/02/16 00:20:03;;;;;;;23.55;16.85;;;;;;;;;;5014511;28;20034;-74
2022/02/16 00:22:30;;;;;;;20.85;16.35;;;;;;;;;;5014257;28;20030;-74
2022/02/16 00:24:56;;;;;;;21.38;15.25;;;;;;;;;;5014320;28;20037;-74
2022/02/16 00:27:22;;;;;;;20.70;15.15;;;;;;;;;;5014353;28;20030;-74
2022/02/16 00:29:48;;;;;;;19.02;14.85;;;;;;;;;;5014350;28;20458;-74
2022/02/16 00:32:14;;;;;;;22.13;16.90;;;;;;;;;;5014185;28;20060;-74
2022/02/16 00:34:40;;;;;;;19.75;14.20;;;;;;;;;;5013867;28;20033;-74
2022/02/16 00:37:06;;;;;;;19.58;14.43;;;;;;;;;;5014139;28;20068;-74
2022/02/16 00:39:33;;;;;;;18.65;14.70;;;;;;;;;;5014143;28;20034;-74
2022/02/16 00:41:59;;;;;;;18.20;14.07;;;;;;;;;;5014219;28;20029;-74
2022/02/16 00:44:26;;;;;;;19.08;15.05;;;;;;;;;;5014196;28;20033;-73
2022/02/16 00:46:52;;;;;;;17.95;14.38;;;;;;;;;;5013832;28;20037;-74
2022/02/16 00:49:18;;;;;;;20.23;14.75;;;;;;;;;;5014106;28;20049;-74
2022/02/16 00:51:45;;;;;;;19.50;14.82;;;;;;;;;;5013690;28;20543;-74
2022/02/16 00:54:11;;;;;;;16.90;14.15;;;;;;;;;;5013935;28;20171;-74
2022/02/16 00:56:40;;;;;;;18.25;14.20;;;;;;;;;;5013566;28;20072;-74
2022/02/16 00:59:06;;;;;;;17.73;13.20;;;;;;;;;;5013734;28;20104;-74
2022/02/16 01:01:32;;;;;;;19.27;13.02;;;;;;;;;;5013498;28;20035;-74
2022/02/16 01:03:59;;;;;;;16.83;13.20;;;;;;;;;;5013644;28;20026;-75
2022/02/16 01:06:25;;;;;;;17.70;14.48;;;;;;;;;;5013662;28;20515;-74
2022/02/16 01:08:51;;;;;;;19.67;13.90;;;;;;;;;;5013176;28;20152;-74
2022/02/16 01:11:17;;;;;;;18.77;13.73;;;;;;;;;;5013674;28;20109;-74
2022/02/16 01:13:43;;;;;;;20.05;14.20;;;;;;;;;;5013300;28;20022;-74
2022/02/16 01:16:09;;;;;;;23.02;16.10;;;;;;;;;;5013610;28;20037;-74
2022/02/16 01:18:35;;;;;;;20.75;16.27;;;;;;;;;;5013399;28;20117;-74
2022/02/16 01:21:01;;;;;;;24.20;16.73;;;;;;;;;;5013226;28;20376;-74
2022/02/16 01:23:27;;;;;;;25.20;17.40;;;;;;;;;;5013374;28;20108;-74
2022/02/16 01:25:54;;;;;;;24.02;16.13;;;;;;;;;;5013005;28;20032;-74
2022/02/16 01:28:21;;;;;;;29.75;19.35;;;;;;;;;;5013325;28;20109;-74
2022/02/16 01:30:47;;;;;;;29.95;19.98;;;;;;;;;;5012753;28;20084;-74
2022/02/16 01:33:13;;;;;;;25.52;16.83;;;;;;;;;;5013353;28;20037;-74
2022/02/16 01:35:40;;;;;;;15.65;12.60;;;;;;;;;;5013086;28;20044;-74
2022/02/16 01:38:06;;;;;;;17.65;13.57;;;;;;;;;;5012975;28;20470;-74
2022/02/16 01:40:32;;;;;;;21.75;15.93;;;;;;;;;;5013024;28;20029;-74
2022/02/16 01:43:00;;;;;;;20.95;15.18;;;;;;;;;;5012749;28;20026;-74
2022/02/16 01:45:27;;;;;;;19.65;14.32;;;;;;;;;;5013059;28;20026;-74
2022/02/16 01:47:54;;;;;;;18.42;14.07;;;;;;;;;;5012785;28;20049;-74
2022/02/16 01:50:20;;;;;;;18.58;14.38;;;;;;;;;;5012897;28;20417;-74
2022/02/16 01:52:46;;;;;;;16.60;13.85;;;;;;;;;;5012664;28;20033;-74
2022/02/16 01:55:12;;;;;;;17.98;13.63;;;;;;;;;;5012747;28;20058;-74
2022/02/16 01:57:39;;;;;;;16.67;13.48;;;;;;;;;;5012704;28;20030;-74
2022/02/16 02:00:07;;;;;;;18.42;13.32;;;;;;;;;;5012498;28;20052;-74
2022/02/16 02:02:33;;;;;;;18.15;13.27;;;;;;;;;;5012688;28;20026;-74
2022/02/16 02:04:59;;;;;;;18.63;15.63;;;;;;;;;;5012382;28;20033;-74
2022/02/16 02:07:25;;;;;;;19.45;14.27;;;;;;;;;;5012708;28;20032;-74
2022/02/16 02:09:51;;;;;;;17.60;13.55;;;;;;;;;;5012575;28;20025;-74
2022/02/16 02:12:18;;;;;;;17.98;14.32;;;;;;;;;;5012658;28;20098;-74
2022/02/16 02:14:50;;;;;;;18.42;14.68;;;;;;;;;;5012513;28;20021;-74
2022/02/16 02:17:16;;;;;;;21.10;13.52;;;;;;;;;;5012476;28;20026;-74
2022/02/16 02:19:42;;;;;;;20.20;14.48;;;;;;;;;;5012429;28;20065;-74
2022/02/16 02:22:08;;;;;;;21.92;15.13;;;;;;;;;;5011665;28;20060;-74
2022/02/16 02:24:34;;;;;;;20.20;14.85;;;;;;;;;;5012488;28;20080;-74
2022/02/16 02:27:00;;;;;;;17.05;14.10;;;;;;;;;;5012142;28;20025;-74
2022/02/16 02:29:27;;;;;;;25.38;17.98;;;;;;;;;;5011286;28;20038;-74
2022/02/16 02:31:53;;;;;;;27.13;18.45;;;;;;;;;;5012036;28;20062;-74
2022/02/16 02:34:20;;;;;;;21.38;16.40;;;;;;;;;;5012232;28;20350;-74
2022/02/16 02:36:46;;;;;;;23.00;17.00;;;;;;;;;;5012301;28;20393;-74
2022/02/16 02:39:12;;;;;;;22.15;15.77;;;;;;;;;;5012216;28;20049;-74
2022/02/16 02:41:38;;;;;;;17.70;14.43;;;;;;;;;;5012222;28;20026;-74
2022/02/16 02:44:04;;;;;;;19.83;14.77;;;;;;;;;;5011956;28;20168;-74
2022/02/16 02:46:30;;;;;;;18.85;13.73;;;;;;;;;;5012212;28;20831;-74
2022/02/16 02:48:57;;;;;;;22.02;16.70;;;;;;;;;;5012010;28;20120;-74
2022/02/16 02:51:23;;;;;;;23.23;16.10;;;;;;;;;;5011894;28;20026;-74
2022/02/16 02:53:49;;;;;;;18.90;15.00;;;;;;;;;;5012081;28;20385;-74
2022/02/16 02:56:15;;;;;;;19.73;14.57;;;;;;;;;;5011912;28;20030;-74
2022/02/16 02:58:41;;;;;;;19.90;14.57;;;;;;;;;;5012028;28;20048;-74
2022/02/16 03:01:07;;;;;;;19.58;15.10;;;;;;;;;;5011709;28;20022;-74
2022/02/16 03:03:37;;;;;;;17.60;13.98;;;;;;;;;;5012093;28;20026;-74
2022/02/16 03:06:07;;;;;;;16.88;13.93;;;;;;;;;;5011765;28;20092;-74
2022/02/16 03:08:33;;;;;;;17.90;14.73;;;;;;;;;;5012003;28;20117;-74
2022/02/16 03:10:59;;;;;;;21.55;16.65;;;;;;;;;;5011776;28;20026;-75
2022/02/16 03:13:25;;;;;;;22.90;18.90;;;;;;;;;;5011942;28;20037;-74
2022/02/16 03:15:52;;;;;;;32.60;25.73;;;;;;;;;;5011798;28;20030;-74
2022/02/16 03:18:22;;;;;;;25.42;20.10;;;;;;;;;;5011713;28;20033;-74
2022/02/16 03:20:49;;;;;;;20.00;15.93;;;;;;;;;;5011949;28;20030;-74
2022/02/16 03:23:15;;;;;;;22.88;17.90;;;;;;;;;;5010342;28;20079;-74
2022/02/16 03:25:41;;;;;;;24.55;17.10;;;;;;;;;;5011857;28;20119;-74
2022/02/16 03:28:07;;;;;;;26.23;18.05;;;;;;;;;;5011508;28;20037;-74
2022/02/16 03:30:34;;;;;;;33.97;21.52;;;;;;;;;;5011798;28;20037;-74
2022/02/16 03:33:04;;;;;;;35.72;24.00;;;;;;;;;;5014314;28;20111;-74
2022/02/16 03:35:30;;;;;;;35.17;22.92;;;;;;;;;;5015508;28;20026;-74
2022/02/16 03:37:57;;;;;;;31.00;21.05;;;;;;;;;;5015175;28;20033;-74
2022/02/16 03:40:23;;;;;;;23.08;15.80;;;;;;;;;;5015454;28;20021;-74
2022/02/16 03:42:49;;;;;;;19.85;15.48;;;;;;;;;;5015110;28;20105;-74
2022/02/16 03:45:15;;;;;;;22.00;15.88;;;;;;;;;;5015099;28;20021;-74
2022/02/16 03:47:42;;;;;;;19.25;15.30;;;;;;;;;;5015450;28;20034;-74
2022/02/16 03:50:08;;;;;;;16.95;14.20;;;;;;;;;;5014892;28;20072;-74
2022/02/16 03:52:34;;;;;;;19.33;14.52;;;;;;;;;;5015114;28;20022;-75
2022/02/16 03:55:00;;;;;;;17.48;13.48;;;;;;;;;;5015028;28;20034;-74
2022/02/16 03:57:26;;;;;;;20.52;14.45;;;;;;;;;;5013437;28;20440;-74
2022/02/16 03:59:52;;;;;;;24.35;17.98;;;;;;;;;;5014954;28;20033;-74
2022/02/16 04:02:19;;;;;;;19.48;14.85;;;;;;;;;;5014735;28;20080;-75
2022/02/16 04:04:45;;;;;;;20.45;14.65;;;;;;;;;;5014846;28;20086;-75
2022/02/16 04:07:11;;;;;;;20.35;16.13;;;;;;;;;;5014626;28;20037;-75
2022/02/16 04:09:38;;;;;;;19.20;15.32;;;;;;;;;;5014936;28;20057;-75
2022/02/16 04:12:05;;;;;;;24.33;17.33;;;;;;;;;;5014567;28;20026;-74
2022/02/16 04:14:31;;;;;;;24.00;16.92;;;;;;;;;;5014593;28;20030;-75
2022/02/16 04:16:57;;;;;;;19.70;16.23;;;;;;;;;;5014498;28;20075;-74
2022/02/16 04:19:24;;;;;;;22.20;16.17;;;;;;;;;;5014502;28;20131;-74
2022/02/16 04:21:50;;;;;;;21.65;16.88;;;;;;;;;;5014634;28;20062;-74
2022/02/16 04:24:17;;;;;;;18.85;15.95;;;;;;;;;;5014572;28;20384;-75
2022/02/16 04:26:44;;;;;;;19.85;15.55;;;;;;;;;;5014366;28;20116;-74
2022/02/16 04:29:10;;;;;;;21.20;15.43;;;;;;;;;;5014553;28;20041;-75
2022/02/16 04:31:36;;;;;;;19.58;16.52;;;;;;;;;;5013893;28;20042;-75
2022/02/16 04:34:02;;;;;;;21.25;14.93;;;;;;;;;;5014280;28;20515;-74
2022/02/16 04:36:28;;;;;;;19.42;15.30;;;;;;;;;;5012624;28;20481;-75
2022/02/16 04:38:58;;;;;;;19.65;14.57;;;;;;;;;;5014130;28;20040;-75
2022/02/16 04:41:25;;;;;;;20.58;15.57;;;;;;;;;;5013932;28;20029;-75
2022/02/16 04:43:51;;;;;;;18.13;15.50;;;;;;;;;;5013484;28;20463;-75
2022/02/16 04:46:17;;;;;;;33.08;21.67;;;;;;;;;;5014091;28;20033;-74
2022/02/16 04:48:44;;;;;;;36.90;27.15;;;;;;;;;;5013883;28;20441;-75
2022/02/16 04:51:10;;;;;;;45.03;30.65;;;;;;;;;;5014047;28;20389;-75
2022/02/16 04:53:36;;;;;;;45.35;32.20;;;;;;;;;;5013800;28;20068;-75
2022/02/16 04:56:04;;;;;;;37.90;26.52;;;;;;;;;;5014250;28;20343;-75
2022/02/16 04:58:30;;;;;;;34.20;24.60;;;;;;;;;;5013460;28;20092;-75
2022/02/16 05:00:56;;;;;;;32.97;23.10;;;;;;;;;;5013592;28;20033;-75
2022/02/16 05:03:22;;;;;;;27.88;20.17;;;;;;;;;;5013587;28;20511;-75
2022/02/16 05:05:48;;;;;;;36.47;26.20;;;;;;;;;;5013780;28;20026;-75
2022/02/16 05:08:14;;;;;;;31.30;24.30;;;;;;;;;;5013794;28;20037;-75
2022/02/16 05:10:41;;;;;;;34.25;25.85;;;;;;;;;;5013415;28;20034;-74
2022/02/16 05:13:07;;;;;;;28.98;22.35;;;;;;;;;;5013615;28;20049;-75
2022/02/16 05:15:33;;;;;;;30.40;23.00;;;;;;;;;;5013394;28;20033;-74
2022/02/16 05:17:59;;;;;;;27.77;21.60;;;;;;;;;;5013490;28;20033;-74
2022/02/16 05:20:26;;;;;;;30.42;21.67;;;;;;;;;;5013320;28;20034;-74
2022/02/16 05:22:52;;;;;;;37.78;26.27;;;;;;;;;;5013161;28;20026;-74
2022/02/16 05:25:18;;;;;;;47.55;36.05;;;;;;;;;;5013462;28;20034;-74
2022/02/16 05:27:47;;;;;;;85.95;55.03;;;;;;;;;;5013044;28;20381;-75
2022/02/16 05:30:14;;;;;;;179.98;117.95;;;;;;;;;;5013343;28;20037;-75
2022/02/16 05:32:41;;;;;;;138.10;86.72;;;;;;;;;;5012917;28;20054;-75
2022/02/16 05:35:09;;;;;;;185.43;119.68;;;;;;;;;;5012868;28;20101;-74
2022/02/16 05:37:35;;;;;;;146.52;83.43;;;;;;;;;;5012855;28;20038;-74
2022/02/16 05:40:02;;;;;;;116.00;69.35;;;;;;;;;;5013252;28;20030;-73
2022/02/16 05:42:28;;;;;;;92.60;53.80;;;;;;;;;;5012949;28;20026;-74
2022/02/16 05:44:54;;;;;;;72.88;47.85;;;;;;;;;;5012917;28;20077;-74
2022/02/16 05:47:20;;;;;;;55.28;35.00;;;;;;;;;;5013021;28;20466;-74
2022/02/16 05:49:46;;;;;;;45.65;33.22;;;;;;;;;;5012557;28;20101;-74
2022/02/16 05:52:13;;;;;;;38.30;25.80;;;;;;;;;;5013049;28;20033;-75
2022/02/16 05:54:39;;;;;;;32.10;23.63;;;;;;;;;;5012264;28;20033;-74
2022/02/16 05:57:06;;;;;;;25.40;20.17;;;;;;;;;;5012399;28;20068;-74
2022/02/16 05:59:34;;;;;;;24.77;19.20;;;;;;;;;;5012555;28;20042;-74
2022/02/16 06:02:04;;;;;;;28.63;20.52;;;;;;;;;;5011435;28;20033;-74
2022/02/16 06:04:33;;;;;;;26.48;20.02;;;;;;;;;;5012369;28;20033;-74
2022/02/16 06:07:00;;;;;;;25.65;18.00;;;;;;;;;;5012706;28;20087;-74
2022/02/16 06:09:26;;;;;;;25.55;19.00;;;;;;;;;;5012722;28;20054;-75
2022/02/16 06:11:53;;;;;;;53.72;37.17;;;;;;;;;;5011943;28;20022;-74
2022/02/16 06:14:19;;;;;;;87.45;54.78;;;;;;;;;;5012514;28;20026;-75
2022/02/16 06:16:45;;;;;;;89.95;59.22;;;;;;;;;;5012079;28;20052;-74
2022/02/16 06:19:12;;;;;;;54.65;37.72;;;;;;;;;;5012184;28;20041;-74
2022/02/16 06:21:38;;;;;;;75.65;52.17;;;;;;;;;;5011894;28;20026;-75
2022/02/16 06:24:04;;;;;;;51.42;36.65;;;;;;;;;;5009530;28;20033;-74
2022/02/16 06:26:30;;;;;;;35.25;24.27;;;;;;;;;;5012745;28;20029;-74
2022/02/16 06:28:57;;;;;;;27.27;20.90;;;;;;;;;;5011377;28;20030;-74
2022/02/16 06:31:23;;;;;;;25.60;18.73;;;;;;;;;;5016071;28;20046;-74
2022/02/16 06:33:49;;;;;;;21.70;16.58;;;;;;;;;;4992345;28;20054;-74
2022/02/16 06:36:15;;;;;;;14.68;11.35;;;;;;;;;;4991928;28;20389;-77
2022/02/16 06:38:42;;;;;;;16.13;11.70;;;;;;;;;;4992243;28;20117;-77
2022/02/16 06:41:08;;;;;;;14.75;12.30;;;;;;;;;;4994934;28;20374;-77
2022/02/16 06:43:34;;;;;;;16.23;12.82;;;;;;;;;;5021569;28;20037;-76
2022/02/16 06:46:00;;;;;;;19.80;14.43;;;;;;;;;;5011875;28;20087;-76
2022/02/16 06:48:26;;;;;;;19.48;14.05;;;;;;;;;;5010908;28;20117;-77
2022/02/16 06:50:52;;;;;;;19.92;14.13;;;;;;;;;;5010955;28;20030;-77
2022/02/16 06:53:18;;;;;;;21.05;15.55;;;;;;;;;;5010759;28;20030;-77
2022/02/16 06:55:45;;;;;;;28.73;21.60;;;;;;;;;;5011461;28;20034;-75
2022/02/16 06:58:11;;;;;;;38.13;28.55;;;;;;;;;;5011154;28;20389;-76
2022/02/16 07:00:37;;;;;;;35.17;25.75;;;;;;;;;;5010699;28;20029;-75
2022/02/16 07:03:03;;;;;;;36.08;27.80;;;;;;;;;;5011773;28;20030;-75
2022/02/16 07:05:29;;;;;;;33.08;26.75;;;;;;;;;;5011745;28;20042;-75
2022/02/16 07:07:55;;;;;;;42.67;29.75;;;;;;;;;;5013935;28;20030;-74
2022/02/16 07:10:22;;;;;;;43.35;34.30;;;;;;;;;;5012524;28;20045;-77
2022/02/16 07:12:48;;;;;;;37.67;28.90;;;;;;;;;;5016075;28;20101;-75
2022/02/16 07:15:14;;;;;;;47.40;34.13;;;;;;;;;;5015032;28;20088;-77
2022/02/16 07:17:43;;;;;;;55.92;42.33;;;;;;;;;;5015754;28;20088;-75
2022/02/16 07:20:10;;;;;;;25.60;19.10;;;;;;;;;;5015487;28;20034;-76
2022/02/16 07:22:47;;;;;;;19.50;16.75;;;;;;;;;;5015086;28;20466;-75
2022/02/16 07:25:14;;;;;;;19.17;16.15;;;;;;;;;;5015419;28;20030;-76
2022/02/16 07:27:40;;;;;;;19.10;15.88;;;;;;;;;;5015380;28;20034;-76
2022/02/16 07:30:08;;;;;;;18.58;15.32;;;;;;;;;;5014638;28;20038;-75
2022/02/16 07:32:37;;;;;;;21.33;15.13;;;;;;;;;;5011313;28;20427;-76
2022/02/16 07:35:03;;;;;;;21.92;17.60;;;;;;;;;;5015264;28;20495;-76
2022/02/16 07:37:29;;;;;;;21.55;17.48;;;;;;;;;;5014594;28;20030;-78
2022/02/16 07:39:57;;;;;;;19.85;15.77;;;;;;;;;;5014866;28;20034;-75
2022/02/16 07:42:24;;;;;;;20.98;16.98;;;;;;;;;;5014942;28;20430;-75
2022/02/16 07:44:50;;;;;;;19.60;16.42;;;;;;;;;;5014963;28;20034;-75
2022/02/16 07:47:16;;;;;;;21.35;15.30;;;;;;;;;;5015312;28;20033;-75
2022/02/16 07:49:42;;;;;;;19.40;15.23;;;;;;;;;;5014151;28;20034;-74
2022/02/16 07:52:08;;;;;;;17.52;14.43;;;;;;;;;;5012055;28;20034;-75
2022/02/16 07:54:34;;;;;;;14.02;12.35;;;;;;;;;;5012632;28;20026;-74
2022/02/16 07:57:00;;;;;;;17.65;13.07;;;;;;;;;;5013729;28;20077;-76
2022/02/16 07:59:28;;;;;;;21.92;15.27;;;;;;;;;;5013551;28;20053;-75
2022/02/16 08:01:55;;;;;;;15.55;12.40;;;;;;;;;;4997976;28;20038;-76
2022/02/16 08:04:21;;;;;;;15.75;12.32;;;;;;;;;;4994350;28;20034;-74
2022/02/16 08:06:48;;;;;;;19.35;13.73;;;;;;;;;;4993835;28;20045;-76
2022/02/16 08:09:15;;;;;;;30.25;22.13;;;;;;;;;;4997825;28;20113;-76
2022/02/16 08:11:42;;;;;;;18.40;12.75;;;;;;;;;;4994337;28;20069;-76
2022/02/16 08:14:09;;;;;;;21.60;11.48;;;;;;;;;;5014918;28;20511;-76
2022/02/16 08:16:35;;;;;;;15.32;10.93;;;;;;;;;;5009765;28;20508;-76
2022/02/16 08:19:05;;;;;;;17.45;11.45;;;;;;;;;;5009165;28;20045;-76
2022/02/16 08:21:31;;;;;;;14.85;11.18;;;;;;;;;;5002736;28;20034;-76
2022/02/16 08:23:57;;;;;;;13.43;10.90;;;;;;;;;;5001190;28;21319;-76
2022/02/16 08:26:23;;;;;;;13.95;9.90;;;;;;;;;;4994197;28;20034;-76
2022/02/16 08:28:50;;;;;;;26.55;11.73;;;;;;;;;;4994432;28;20046;-78
2022/02/16 08:31:16;;;;;;;15.68;11.18;;;;;;;;;;5013516;28;20139;-79
2022/02/16 08:33:42;;;;;;;15.10;9.77;;;;;;;;;;5013515;28;20033;-79
2022/02/16 08:36:11;;;;;;;14.10;10.73;;;;;;;;;;5013294;28;20069;-78
2022/02/16 08:38:37;;;;;;;17.77;10.40;;;;;;;;;;5012984;28;20072;-77
2022/02/16 08:41:04;;;;;;;14.18;9.20;;;;;;;;;;5013223;28;20030;-79
2022/02/16 08:43:30;;;;;;;16.35;10.27;;;;;;;;;;5009188;28;20106;-80
2022/02/16 08:45:58;;;;;;;11.68;9.43;;;;;;;;;;4993345;28;20101;-78
2022/02/16 08:48:24;;;;;;;13.50;9.48;;;;;;;;;;4995106;28;20026;-77
2022/02/16 08:50:51;;;;;;;13.73;9.40;;;;;;;;;;4994091;28;20033;-77
2022/02/16 08:53:17;;;;;;;12.48;9.25;;;;;;;;;;4992942;28;20105;-75
2022/02/16 08:55:43;;;;;;;15.20;11.00;;;;;;;;;;4995875;28;20030;-77
2022/02/16 08:58:10;;;;;;;14.43;11.35;;;;;;;;;;4993113;28;20474;-76
2022/02/16 09:00:37;;;;;;;21.30;12.15;;;;;;;;;;5005294;28;20212;-76
2022/02/16 09:03:03;;;;;;;18.13;13.40;;;;;;;;;;5012887;28;20022;-77
2022/02/16 09:05:29;;;;;;;11.20;9.30;;;;;;;;;;5012776;28;20034;-76
2022/02/16 09:07:55;;;;;;;14.10;10.43;;;;;;;;;;5010348;28;20026;-75
2022/02/16 09:10:22;;;;;;;13.55;10.50;;;;;;;;;;5012597;28;20026;-76
2022/02/16 09:12:48;;;;;;;27.58;20.27;;;;;;;;;;5006403;28;20034;-76
2022/02/16 09:15:14;;;;;;;15.18;8.95;;;;;;;;;;4999884;28;20501;-76
2022/02/16 09:17:40;;;;;;;11.70;8.38;;;;;;;;;;4995592;28;20026;-76
2022/02/16 09:20:07;;;;;;;14.05;8.73;;;;;;;;;;5006622;28;20041;-79
2022/02/16 09:22:34;;;;;;;16.35;10.00;;;;;;;;;;5001025;28;20052;-77
2022/02/16 09:25:00;;;;;;;13.50;8.45;;;;;;;;;;5001869;28;20038;-76
2022/02/16 09:27:29;;;;;;;15.52;9.50;;;;;;;;;;5001068;28;20452;-77
2022/02/16 09:29:55;;;;;;;11.35;8.02;;;;;;;;;;5000583;28;20121;-78
2022/02/16 09:32:21;;;;;;;11.50;8.30;;;;;;;;;;4995543;28;20537;-79
2022/02/16 09:34:48;;;;;;;11.50;9.00;;;;;;;;;;5002400;28;20039;-76
2022/02/16 09:37:14;;;;;;;12.10;8.70;;;;;;;;;;4999876;28;20041;-75
2022/02/16 09:39:40;;;;;;;13.18;8.63;;;;;;;;;;4991948;28;20161;-77
2022/02/16 09:42:07;;;;;;;15.23;8.80;;;;;;;;;;4991788;28;20037;-81
2022/02/16 09:44:36;;;;;;;17.30;8.93;;;;;;;;;;4992308;28;20031;-76
2022/02/16 09:47:03;;;;;;;9.55;7.43;;;;;;;;;;4992309;28;20061;-75
2022/02/16 09:49:29;;;;;;;11.15;8.45;;;;;;;;;;4991790;28;20026;-77
2022/02/16 09:51:55;;;;;;;11.55;9.18;;;;;;;;;;5004160;28;20046;-75
2022/02/16 09:54:21;;;;;;;10.40;9.38;;;;;;;;;;5011390;28;20511;-74
2022/02/16 09:56:47;;;;;;;16.73;12.88;;;;;;;;;;5011690;28;20053;-75
2022/02/16 09:59:14;;;;;;;16.65;12.20;;;;;;;;;;5011500;28;20041;-76
2022/02/16 10:01:59;;;;;;;12.95;10.70;;;;;;;;;;5010534;28;20034;-74
2022/02/16 10:04:26;;;;;;;15.27;10.10;;;;;;;;;;5011592;28;20493;-74
2022/02/16 10:06:52;;;;;;;12.77;9.63;;;;;;;;;;5011354;28;20560;-75
2022/02/16 10:09:38;;;;;;;12.38;9.95;;;;;;;;;;5011913;28;20392;-75
2022/02/16 10:12:07;;;;;;;16.83;14.27;;;;;;;;;;5001808;28;20029;-75
2022/02/16 10:14:34;;;;;;;16.73;9.27;;;;;;;;;;5003779;28;20575;-74
2022/02/16 10:17:03;;;;;;;13.27;10.23;;;;;;;;;;5004521;28;20026;-76
2022/02/16 10:19:46;;;;;;;15.52;9.55;;;;;;;;;;5009872;28;20065;-75
2022/02/16 10:22:12;;;;;;;15.63;9.70;;;;;;;;;;5010653;28;20072;-76
2022/02/16 10:24:38;;;;;;;12.20;9.18;;;;;;;;;;5010854;28;20475;-75
2022/02/16 10:27:05;;;;;;;13.88;8.73;;;;;;;;;;4996466;28;20093;-78
2022/02/16 10:29:32;;;;;;;10.85;8.52;;;;;;;;;;5000188;28;20120;-76
2022/02/16 10:31:59;;;;;;;16.20;10.57;;;;;;;;;;5010980;28;20065;-76
2022/02/16 10:34:44;;;;;;;14.48;10.88;;;;;;;;;;5011365;28;20396;-78
2022/02/16 10:37:10;;;;;;;;;;;;;;;;;;5011663;28;20026;-82
2022/02/16 10:39:36;;;;;;;13.32;8.45;;;;;;;;;;5002167;28;19987;-75
2022/02/16 10:42:03;;;;;;;11.38;8.45;;;;;;;;;;4995296;28;20030;-77
2022/02/16 10:44:33;;;;;;;9.35;8.07;;;;;;;;;;4991522;28;20031;-75
2022/02/16 10:46:59;;;;;;;13.82;7.18;;;;;;;;;;4991674;28;20106;-78
2022/02/16 10:49:26;;;;;;;12.23;6.47;;;;;;;;;;4991179;28;20108;-78
2022/02/16 10:52:03;;;;;;;15.18;8.23;;;;;;;;;;4992791;28;20395;-77
2022/02/16 10:54:29;;;;;;;12.52;7.55;;;;;;;;;;4998749;28;20048;-76
2022/02/16 10:56:55;;;;;;;15.55;8.13;;;;;;;;;;4993077;28;20485;-78
2022/02/16 10:59:22;;;;;;;11.77;7.18;;;;;;;;;;4997403;28;20065;-76
2022/02/16 11:01:48;;;;;;;9.13;6.55;;;;;;;;;;4997312;28;20112;-68
2022/02/16 11:04:15;;;;;;;11.80;8.20;;;;;;;;;;4991110;28;20109;-76
2022/02/16 11:06:43;;;;;;;10.95;7.75;;;;;;;;;;4990724;28;20188;-76
2022/02/16 11:09:14;;;;;;;13.63;9.70;;;;;;;;;;5006157;28;20038;-74
2022/02/16 11:11:41;;;;;;;23.58;16.05;;;;;;;;;;5004409;28;20030;-77
2022/02/16 11:14:08;;;;;;;24.77;18.77;;;;;;;;;;5013563;28;20033;-78
2022/02/16 11:16:35;;;;;;;13.18;9.50;;;;;;;;;;5011349;28;20047;-78
2022/02/16 11:19:04;;;;;;;13.68;9.23;;;;;;;;;;5010349;28;20485;-77
2022/02/16 11:21:30;;;;;;;11.13;9.93;;;;;;;;;;5030229;28;20125;-74
2022/02/16 11:23:57;;;;;;;11.32;8.00;;;;;;;;;;5030501;28;20026;-77
2022/02/16 11:26:29;;;;;;;10.25;8.18;;;;;;;;;;5030148;28;20438;-77
2022/02/16 11:28:56;;;;;;;13.45;9.70;;;;;;;;;;5001204;28;20038;-75
2022/02/16 11:31:31;;;;;;;10.75;9.25;;;;;;;;;;5007030;28;20049;-76
2022/02/16 11:34:16;;;;;;;13.40;7.65;;;;;;;;;;5030277;28;20400;-76
2022/02/16 11:36:46;;;;;;;10.90;6.80;;;;;;;;;;5008443;28;20033;-74
2022/02/16 11:39:12;;;;;;;8.10;6.28;;;;;;;;;;5009637;28;20444;-75
2022/02/16 11:41:54;;;;;;;9.13;6.50;;;;;;;;;;4994169;28;20089;-76
2022/02/16 11:44:20;;;;;;;12.43;6.93;;;;;;;;;;5007512;28;20018;-75
2022/02/16 11:46:51;;;;;;;11.80;7.28;;;;;;;;;;5002375;28;20038;-75
2022/02/16 11:49:27;;;;;;;12.10;8.63;;;;;;;;;;5002348;28;20038;-75
2022/02/16 11:51:53;;;;;;;9.45;7.55;;;;;;;;;;5003830;28;20025;-76
2022/02/16 11:54:38;;;;;;;11.15;7.35;;;;;;;;;;4997161;28;20041;-75
2022/02/16 11:57:03;;;;;;;;;;;;;;;;;;5000360;28;20470;-75
2022/02/16 11:59:30;;;;;;;11.77;8.30;;;;;;;;;;5005444;28;19917;-76
2022/02/16 12:02:05;;;;;;;10.70;7.30;;;;;;;;;;5009214;28;20038;-77
2022/02/16 12:04:32;;;;;;;11.75;7.13;;;;;;;;;;5003006;28;20081;-76
2022/02/16 12:07:16;;;;;;;10.23;6.95;;;;;;;;;;5003247;28;20017;-76
2022/02/16 12:09:42;;;;;;;8.73;7.82;;;;;;;;;;5007360;28;20034;-77
2022/02/16 12:12:12;;;;;;;14.23;9.38;;;;;;;;;;4997208;28;20393;-76
2022/02/16 12:14:38;;;;;;;12.45;8.00;;;;;;;;;;5006485;28;20133;-77
2022/02/16 12:17:07;;;;;;;9.88;8.70;;;;;;;;;;5002139;28;20113;-76
2022/02/16 12:19:33;;;;;;;10.82;6.93;;;;;;;;;;5002890;28;20042;-76
2022/02/16 12:22:02;;;;;;;11.77;6.97;;;;;;;;;;5003169;28;20030;-77
2022/02/16 12:24:29;;;;;;;10.40;7.18;;;;;;;;;;5006081;28;20504;-76
2022/02/16 12:26:59;;;;;;;8.55;7.28;;;;;;;;;;4999034;28;20052;-76
2022/02/16 12:29:29;;;;;;;12.38;8.73;;;;;;;;;;4998101;28;20092;-76
2022/02/16 12:31:57;;;;;;;10.18;7.90;;;;;;;;;;5007343;28;20125;-77
2022/02/16 12:34:25;;;;;;;8.63;7.28;;;;;;;;;;5011659;28;20060;-78
2022/02/16 12:37:09;;;;;;;9.60;7.28;;;;;;;;;;5012033;28;20472;-77
2022/02/16 12:39:36;;;;;;;15.85;12.65;;;;;;;;;;5010184;28;20038;-76
2022/02/16 12:42:03;;;;;;;13.30;9.98;;;;;;;;;;5001486;28;20121;-78
2022/02/16 12:44:30;;;;;;;11.75;6.65;;;;;;;;;;5004658;28;20457;-77
2022/02/16 12:46:57;;;;;;;10.68;6.07;;;;;;;;;;5007530;28;20038;-80
2022/02/16 12:49:24;;;;;;;17.27;11.23;;;;;;;;;;5005250;28;20037;-77
2022/02/16 12:51:52;;;;;;;12.38;8.27;;;;;;;;;;5005909;28;20033;-77
2022/02/16 12:54:23;;;;;;;8.10;6.53;;;;;;;;;;5002815;28;20045;-77
2022/02/16 12:56:51;;;;;;;15.02;10.52;;;;;;;;;;5002185;28;20616;-79
2022/02/16 12:59:19;;;;;;;14.90;10.40;;;;;;;;;;5002069;28;20030;-77
2022/02/16 13:01:47;;;;;;;9.98;6.65;;;;;;;;;;4999661;28;20038;-77
2022/02/16 13:04:17;;;;;;;7.20;5.57;;;;;;;;;;5000945;28;20022;-75
2022/02/16 13:06:47;;;;;;;8.35;5.28;;;;;;;;;;5007724;28;20061;-76
2022/02/16 13:09:17;;;;;;;11.15;5.15;;;;;;;;;;5011576;28;20029;-76
2022/02/16 13:11:51;;;;;;;7.07;5.28;;;;;;;;;;5013083;28;20084;-81
2022/02/16 13:14:22;;;;;;;9.52;6.10;;;;;;;;;;5001486;28;20872;-78
2022/02/16 13:16:55;;;;;;;9.40;6.57;;;;;;;;;;5006753;28;20469;-82
2022/02/16 13:19:41;;;;;;;9.83;5.37;;;;;;;;;;5013221;28;20029;-82
2022/02/16 13:22:07;;;;;;;15.82;9.38;;;;;;;;;;5011842;28;20362;-79
2022/02/16 13:24:33;;;;;;;35.65;23.42;;;;;;;;;;5006653;28;20037;-78
2022/02/16 13:27:04;;;;;;;25.25;14.90;;;;;;;;;;5012309;28;20034;-78
2022/02/16 13:29:30;;;;;;;55.50;25.65;;;;;;;;;;5010261;28;20034;-83
2022/02/16 13:31:56;;;;;;;27.17;17.92;;;;;;;;;;5010207;28;20129;-83
2022/02/16 13:34:23;;;;;;;9.63;6.40;;;;;;;;;;4999036;28;20045;-77
2022/02/16 13:37:10;;;;;;;9.63;6.57;;;;;;;;;;5009088;28;20034;-78
2022/02/16 13:39:37;;;;;;;10.70;6.47;;;;;;;;;;5005439;28;20034;-77
2022/02/16 13:42:04;;;;;;;8.85;6.40;;;;;;;;;;4999298;28;20041;-75
2022/02/16 13:44:31;;;;;;;8.88;6.45;;;;;;;;;;4998665;28;20066;-76
2022/02/16 13:46:59;;;;;;;12.10;8.60;;;;;;;;;;5001318;28;20029;-79
2022/02/16 13:49:26;;;;;;;11.52;7.55;;;;;;;;;;5006189;28;20034;-76
2022/02/16 13:54:57;;;;;;;52.70;40.42;;;;;;;;;;4993498;28;20037;-77
2022/02/16 13:57:27;;;;;;;21.05;17.75;;;;;;;;;;5011121;28;20567;-83
2022/02/16 13:59:55;;;;;;;19.70;15.52;;;;;;;;;;5006469;28;20088;-81
2022/02/16 14:02:24;;;;;;;21.00;14.05;;;;;;;;;;4992804;28;20096;-79
2022/02/16 14:04:51;;;;;;;14.80;9.57;;;;;;;;;;4993368;28;20457;-78
2022/02/16 14:07:19;;;;;;;11.77;7.10;;;;;;;;;;4992818;28;20085;-76
2022/02/16 14:09:45;;;;;;;10.90;6.65;;;;;;;;;;4995600;28;20035;-76
2022/02/16 14:12:11;;;;;;;9.38;6.95;;;;;;;;;;4993333;28;20041;-76
2022/02/16 14:14:41;;;;;;;9.73;6.57;;;;;;;;;;4992932;28;20393;-76
2022/02/16 14:17:08;;;;;;;7.63;6.50;;;;;;;;;;4991993;28;20045;-76
2022/02/16 14:19:35;;;;;;;12.43;7.28;;;;;;;;;;4992814;28;20042;-78
2022/02/16 14:22:05;;;;;;;9.95;7.10;;;;;;;;;;4992785;28;20058;-76
2022/02/16 14:24:31;;;;;;;11.40;7.50;;;;;;;;;;5001651;28;20077;-79
2022/02/16 14:26:58;;;;;;;12.88;7.85;;;;;;;;;;5011713;28;20026;-78